Terminal Aerodrome Forecast
Issued by NWS Cleveland, OH

Home | Current Version | Previous Version | Text Only | Print | Product List | Glossary On
Versions: 1 2 3 4 5 6 7 8 9 10 11 12 13 14 15 16 17 18 19 20 21 22 23 24 25 26
631
FTUS41 KCLE 292323
TAFCLE
TAF
KCLE 292323Z 3000/0106 03010KT P6SM OVC025
     FM300200 05010KT P6SM OVC015
     FM300900 12010KT 4SM BR OVC001
     FM301200 17012KT 6SM BR OVC007
     FM301500 19012KT P6SM SCT250
     FM301700 22015G25KT P6SM BKN250
     FM010000 22008KT P6SM OVC100=

USA.gov is the U.S. government's official web portal to all federal, state and local government web resources and services.